createdAt,value
2022-10-08T00:00:44.332Z,13.42
2022-10-08T00:03:10.767Z,13.49
2022-10-08T00:05:37.249Z,13.28
2022-10-08T00:08:03.700Z,13.22
2022-10-08T00:10:31.007Z,13.27
2022-10-08T00:12:57.503Z,13.29
2022-10-08T00:15:23.938Z,13.22
2022-10-08T00:17:50.415Z,13.14
2022-10-08T00:20:16.990Z,13.02
2022-10-08T00:22:43.569Z,13.08
2022-10-08T00:25:10.214Z,13.05
2022-10-08T00:27:37.210Z,12.86
2022-10-08T00:30:04.368Z,12.96
2022-10-08T00:32:30.869Z,12.83
2022-10-08T00:35:00.673Z,12.79
2022-10-08T00:37:27.145Z,12.79
2022-10-08T00:39:53.624Z,12.67
2022-10-08T00:42:21.581Z,12.59
2022-10-08T00:44:51.337Z,12.54
2022-10-08T00:47:23.150Z,12.46
2022-10-08T00:49:51.639Z,12.39
2022-10-08T00:52:19.147Z,12.17
2022-10-08T00:54:48.808Z,12.06
2022-10-08T00:57:16.229Z,12.22
2022-10-08T00:59:42.687Z,12.29
2022-10-08T01:02:10.872Z,12.26
2022-10-08T01:04:38.283Z,12.29
2022-10-08T01:07:32.241Z,12.21
2022-10-08T01:10:11.143Z,12.04
2022-10-08T01:13:04.930Z,12.22
2022-10-08T01:15:42.284Z,12.15
2022-10-08T01:18:22.531Z,12.15
2022-10-08T01:21:01.055Z,12.22
2022-10-08T01:23:45.766Z,12.28
2022-10-08T01:26:51.478Z,12.29
2022-10-08T01:29:23.018Z,11.88
2022-10-08T01:32:01.796Z,11.63
2022-10-08T01:34:37.618Z,11.82
2022-10-08T01:37:05.905Z,11.80
2022-10-08T01:39:35.103Z,11.86
2022-10-08T01:42:03.681Z,11.64
2022-10-08T01:44:40.984Z,11.53
2022-10-08T01:47:11.223Z,11.59
2022-10-08T01:49:46.042Z,11.64
2022-10-08T01:52:19.058Z,11.69
2022-10-08T01:54:46.997Z,11.62
2022-10-08T01:57:13.795Z,11.63
2022-10-08T01:59:54.120Z,11.46
2022-10-08T02:02:22.897Z,11.50
2022-10-08T02:04:51.616Z,11.53
2022-10-08T02:07:20.582Z,11.48
2022-10-08T02:10:05.265Z,11.47
2022-10-08T02:12:32.040Z,11.43
2022-10-08T02:14:59.079Z,11.26
2022-10-08T02:17:35.882Z,11.36
2022-10-08T02:20:26.879Z,11.34
2022-10-08T02:23:01.660Z,11.22
2022-10-08T02:25:37.169Z,11.12
2022-10-08T02:28:38.782Z,11.07
2022-10-08T02:31:14.246Z,10.83
2022-10-08T02:33:48.492Z,10.95
2022-10-08T02:36:17.341Z,10.96
2022-10-08T02:38:53.701Z,10.74
2022-10-08T02:41:21.991Z,10.83
2022-10-08T02:43:49.756Z,10.67
2022-10-08T02:46:19.207Z,10.41
2022-10-08T02:48:52.413Z,10.55
2022-10-08T02:51:19.315Z,10.56
2022-10-08T02:53:48.329Z,10.43
2022-10-08T02:56:24.446Z,10.14
2022-10-08T02:58:51.631Z,10.34
2022-10-08T03:01:33.484Z,10.33
2022-10-08T03:04:27.972Z,10.25
2022-10-08T03:06:55.198Z,10.22
2022-10-08T03:09:23.692Z,9.94
2022-10-08T03:11:50.681Z,9.89
2022-10-08T03:14:18.735Z,9.91
2022-10-08T03:16:46.992Z,10.04
2022-10-08T03:19:17.949Z,10.03
2022-10-08T03:21:46.038Z,9.91
2022-10-08T03:24:13.900Z,9.79
2022-10-08T03:26:40.848Z,9.84
2022-10-08T03:29:07.712Z,9.92
2022-10-08T03:31:34.821Z,9.91
2022-10-08T03:34:01.400Z,9.87
2022-10-08T03:36:28.989Z,9.89
2022-10-08T03:38:55.528Z,9.69
2022-10-08T03:41:22.112Z,9.51
2022-10-08T03:43:48.666Z,9.41
2022-10-08T03:46:15.570Z,9.63
2022-10-08T03:48:43.048Z,9.48
2022-10-08T03:51:13.178Z,9.39
2022-10-08T03:53:41.424Z,9.43
2022-10-08T03:56:11.569Z,9.35
2022-10-08T03:58:38.154Z,9.29
2022-10-08T04:01:11.475Z,9.33
2022-10-08T04:03:38.086Z,9.23
2022-10-08T04:06:08.209Z,8.99
2022-10-08T04:08:38.350Z,8.82
2022-10-08T04:11:07.035Z,8.71
2022-10-08T04:13:35.031Z,8.91
2022-10-08T04:16:07.200Z,9.01
2022-10-08T04:18:34.601Z,9.04
2022-10-08T04:21:03.851Z,9.11
2022-10-08T04:23:32.899Z,9.02
2022-10-08T04:25:59.736Z,8.88
2022-10-08T04:28:26.360Z,8.83
2022-10-08T04:31:01.011Z,8.69
2022-10-08T04:33:28.574Z,8.70
2022-10-08T04:35:59.841Z,8.72
2022-10-08T04:38:27.176Z,8.62
2022-10-08T04:41:06.924Z,8.71
2022-10-08T04:43:34.626Z,8.84
2022-10-08T04:46:01.192Z,8.79
2022-10-08T04:48:27.839Z,8.58
2022-10-08T04:51:04.102Z,8.43
2022-10-08T04:53:32.382Z,8.37
2022-10-08T04:56:08.843Z,8.42
2022-10-08T04:58:37.455Z,8.60
2022-10-08T05:01:05.848Z,8.65
2022-10-08T05:03:39.527Z,8.39
2022-10-08T05:06:06.648Z,8.40
2022-10-08T05:08:33.765Z,8.24
2022-10-08T05:11:00.554Z,8.23
2022-10-08T05:13:27.101Z,8.34
2022-10-08T05:15:53.697Z,8.49
2022-10-08T05:18:20.356Z,8.30
2022-10-08T05:20:46.913Z,8.52
2022-10-08T05:23:13.677Z,8.38
2022-10-08T05:25:40.236Z,8.47
2022-10-08T05:28:07.005Z,8.32
2022-10-08T05:30:33.574Z,8.31
2022-10-08T05:33:00.453Z,8.31
2022-10-08T05:35:26.978Z,8.24
2022-10-08T05:37:53.557Z,8.35
2022-10-08T05:40:20.908Z,8.10
2022-10-08T05:42:47.704Z,7.97
2022-10-08T05:45:14.717Z,8.14
2022-10-08T05:47:41.326Z,8.23
2022-10-08T05:50:08.301Z,8.10
2022-10-08T05:52:34.845Z,7.92
2022-10-08T05:55:01.395Z,7.99
2022-10-08T05:57:28.272Z,8.11
2022-10-08T05:59:54.928Z,8.02
2022-10-08T06:02:22.247Z,8.04
2022-10-08T06:04:49.958Z,7.96
2022-10-08T06:07:17.035Z,8.02
2022-10-08T06:09:45.203Z,7.98
2022-10-08T06:12:13.806Z,8.10
2022-10-08T06:14:40.846Z,7.96
2022-10-08T06:17:07.409Z,7.97
2022-10-08T06:19:37.830Z,7.92
2022-10-08T06:22:05.025Z,7.79
2022-10-08T06:24:31.929Z,7.83
2022-10-08T06:26:58.715Z,8.01
2022-10-08T06:29:25.260Z,8.03
2022-10-08T06:31:52.187Z,7.88
2022-10-08T06:34:18.827Z,7.90
2022-10-08T06:36:45.393Z,7.99
2022-10-08T06:39:17.562Z,8.20
2022-10-08T06:41:44.354Z,8.18
2022-10-08T06:44:13.511Z,8.24
2022-10-08T06:46:40.216Z,8.22
2022-10-08T06:49:10.292Z,8.02
2022-10-08T06:51:36.837Z,7.98
2022-10-08T06:54:07.977Z,7.99
2022-10-08T06:56:38.666Z,7.91
2022-10-08T06:59:05.896Z,7.91
2022-10-08T07:01:34.022Z,7.97
2022-10-08T07:04:01.535Z,8.14
2022-10-08T07:06:28.543Z,8.04
2022-10-08T07:08:57.026Z,8.23
2022-10-08T07:11:24.187Z,8.31
2022-10-08T07:13:51.146Z,8.62
2022-10-08T07:16:21.153Z,8.73
2022-10-08T07:18:49.656Z,8.87
2022-10-08T07:21:17.629Z,9.01
2022-10-08T07:23:44.393Z,9.34
2022-10-08T07:26:12.836Z,9.49
2022-10-08T07:28:42.128Z,9.61
2022-10-08T07:31:13.610Z,9.59
2022-10-08T07:33:40.905Z,9.79
2022-10-08T07:36:19.175Z,9.91
2022-10-08T07:38:45.706Z,10.14
2022-10-08T07:41:12.752Z,10.24
2022-10-08T07:43:43.243Z,10.29
2022-10-08T07:46:11.414Z,10.47
2022-10-08T07:48:38.821Z,10.51
2022-10-08T07:51:10.364Z,10.69
2022-10-08T07:53:37.013Z,10.86
2022-10-08T07:56:04.847Z,10.97
2022-10-08T07:58:31.383Z,11.04
2022-10-08T08:00:59.195Z,11.03
2022-10-08T08:03:26.001Z,11.11
2022-10-08T08:05:54.132Z,11.01
2022-10-08T08:08:24.788Z,11.16
2022-10-08T08:11:02.144Z,11.36
2022-10-08T08:13:33.018Z,11.50
2022-10-08T08:16:09.114Z,11.55
2022-10-08T08:18:42.024Z,11.58
2022-10-08T08:21:11.203Z,11.76
2022-10-08T08:23:39.633Z,11.81
2022-10-08T08:26:08.823Z,11.78
2022-10-08T08:28:35.693Z,11.93
2022-10-08T08:31:39.749Z,12.06
2022-10-08T08:34:12.219Z,12.19
2022-10-08T08:36:42.777Z,12.25
2022-10-08T08:39:13.821Z,12.25
2022-10-08T08:42:01.762Z,12.37
2022-10-08T08:44:40.583Z,12.35
2022-10-08T08:47:07.103Z,12.42
2022-10-08T08:49:43.512Z,12.40
2022-10-08T08:52:12.614Z,12.57
2022-10-08T08:54:39.334Z,12.67
2022-10-08T08:58:13.681Z,12.86
2022-10-08T09:00:42.317Z,12.82
2022-10-08T09:03:45.820Z,12.99
2022-10-08T09:06:15.099Z,13.11
2022-10-08T09:09:06.082Z,13.14
2022-10-08T09:11:32.702Z,13.16
2022-10-08T09:35:35.765Z,13.88
2022-10-08T09:38:05.815Z,13.99
2022-10-08T09:40:32.780Z,14.04
2022-10-08T09:55:21.877Z,13.97
2022-10-08T09:57:50.769Z,13.91
2022-10-08T10:00:25.893Z,14.02
2022-10-08T10:02:56.757Z,14.14
2022-10-08T10:05:28.705Z,14.29
2022-10-08T10:07:55.574Z,14.45
2022-10-08T10:10:25.163Z,14.54
2022-10-08T10:13:03.927Z,14.61
2022-10-08T10:15:34.651Z,14.72
2022-10-08T10:18:11.841Z,14.91
2022-10-08T10:20:42.032Z,15.11
2022-10-08T10:23:21.340Z,15.21
2022-10-08T10:25:50.904Z,15.28
2022-10-08T10:28:19.689Z,15.40
2022-10-08T10:31:10.953Z,15.50
2022-10-08T10:33:43.738Z,15.49
2022-10-08T10:36:14.259Z,15.58
2022-10-08T10:38:50.437Z,15.50
2022-10-08T10:41:22.884Z,15.67
2022-10-08T10:43:54.751Z,15.69
2022-10-08T10:46:41.890Z,15.70
2022-10-08T10:49:17.932Z,15.82
2022-10-08T10:51:56.717Z,15.84
2022-10-08T10:54:33.960Z,15.88
2022-10-08T10:57:16.282Z,15.96
2022-10-08T10:59:48.915Z,15.92
2022-10-08T11:02:51.811Z,16.00
2022-10-08T11:05:27.831Z,16.04
2022-10-08T11:08:31.740Z,16.07
2022-10-08T11:11:15.158Z,16.15
2022-10-08T11:13:46.734Z,16.01
2022-10-08T11:16:39.890Z,16.11
2022-10-08T11:19:25.809Z,16.18
2022-10-08T11:22:13.755Z,16.13
2022-10-08T11:24:46.289Z,16.35
2022-10-08T11:27:37.722Z,16.41
2022-10-08T11:30:33.563Z,16.40
2022-10-08T11:33:00.488Z,16.28
2022-10-08T11:35:36.185Z,16.25
2022-10-08T11:38:12.278Z,16.01
2022-10-08T11:41:10.198Z,16.11
2022-10-08T11:43:44.306Z,16.19
2022-10-08T11:46:31.529Z,16.16
2022-10-08T11:49:01.813Z,16.24
2022-10-08T11:51:31.066Z,16.31
2022-10-08T11:54:03.913Z,16.40
2022-10-08T11:56:31.344Z,16.54
2022-10-08T11:59:00.501Z,16.54
2022-10-08T12:01:27.182Z,16.58
2022-10-08T12:04:01.804Z,16.83
2022-10-08T12:06:29.942Z,16.97
2022-10-08T12:09:04.340Z,17.02
2022-10-08T12:11:39.748Z,17.09
2022-10-08T12:14:15.366Z,17.02
2022-10-08T12:16:48.095Z,17.20
2022-10-08T12:19:35.686Z,17.26
2022-10-08T12:22:11.307Z,17.41
2022-10-08T12:24:39.920Z,17.37
2022-10-08T12:27:18.657Z,17.52
2022-10-08T12:29:57.268Z,17.34
2022-10-08T12:32:29.185Z,17.73
2022-10-08T12:34:56.209Z,17.88
2022-10-08T12:37:42.102Z,18.08
2022-10-08T12:40:21.338Z,17.63
2022-10-08T12:42:50.790Z,17.91
2022-10-08T12:45:27.001Z,17.99
2022-10-08T12:48:14.652Z,18.18
2022-10-08T12:50:47.750Z,18.24
2022-10-08T12:53:16.281Z,18.12
2022-10-08T12:55:52.269Z,18.15
2022-10-08T12:58:29.381Z,18.30
2022-10-08T13:00:59.216Z,18.29
2022-10-08T13:03:25.800Z,18.43
2022-10-08T13:05:55.460Z,18.54
2022-10-08T13:08:29.841Z,18.45
2022-10-08T13:10:57.650Z,18.55
2022-10-08T13:13:39.603Z,18.56
2022-10-08T13:16:09.761Z,18.52
2022-10-08T13:18:38.307Z,18.44
2022-10-08T13:21:10.092Z,18.70
2022-10-08T13:23:36.529Z,18.74
2022-10-08T13:26:03.125Z,18.69
2022-10-08T13:28:58.738Z,18.74
2022-10-08T13:31:22.622Z,18.59
2022-10-08T13:33:49.141Z,18.52
2022-10-08T13:36:21.425Z,18.74
2022-10-08T13:38:48.035Z,18.60
2022-10-08T13:41:23.444Z,18.63
2022-10-08T13:43:50.005Z,18.43
2022-10-08T13:46:16.806Z,18.63
2022-10-08T13:48:44.216Z,18.66
2022-10-08T13:51:11.194Z,18.73
2022-10-08T13:53:37.851Z,18.75
2022-10-08T13:56:04.899Z,18.70
2022-10-08T13:58:32.688Z,18.81
2022-10-08T14:01:00.224Z,18.84
2022-10-08T14:03:29.063Z,18.86
2022-10-08T14:05:55.539Z,18.69
2022-10-08T14:08:28.390Z,18.79
2022-10-08T14:10:58.311Z,18.56
2022-10-08T14:13:25.372Z,18.43
2022-10-08T14:15:51.999Z,18.36
2022-10-08T14:18:20.085Z,18.19
2022-10-08T14:20:47.110Z,17.94
2022-10-08T14:23:14.262Z,17.63
2022-10-08T14:25:40.824Z,17.52
2022-10-08T14:28:07.382Z,17.47
2022-10-08T14:30:33.973Z,17.41
2022-10-08T14:33:00.459Z,17.32
2022-10-08T14:35:26.997Z,17.25
2022-10-08T14:37:53.450Z,17.32
2022-10-08T14:40:23.008Z,17.44
2022-10-08T14:42:50.330Z,17.30
2022-10-08T14:45:17.219Z,17.39
2022-10-08T14:47:43.713Z,17.44
2022-10-08T14:50:10.361Z,17.41
2022-10-08T14:52:41.748Z,17.53
2022-10-08T14:55:10.652Z,17.58
2022-10-08T14:57:37.207Z,17.57
2022-10-08T15:00:06.792Z,17.54
2022-10-08T15:02:34.535Z,17.63
2022-10-08T15:05:01.695Z,17.54
2022-10-08T15:07:28.755Z,17.42
2022-10-08T15:09:55.291Z,17.42
2022-10-08T15:12:21.817Z,17.28
2022-10-08T15:14:48.356Z,17.44
2022-10-08T15:17:15.150Z,17.36
2022-10-08T15:19:41.636Z,17.18
2022-10-08T15:22:08.243Z,17.18
2022-10-08T15:24:34.728Z,17.13
2022-10-08T15:27:04.513Z,17.08
2022-10-08T15:29:31.024Z,16.94
2022-10-08T15:31:57.572Z,16.87
2022-10-08T15:34:24.059Z,16.72
2022-10-08T15:36:50.556Z,16.85
2022-10-08T15:39:18.346Z,16.78
2022-10-08T15:41:46.876Z,16.74
2022-10-08T15:44:24.717Z,16.66
2022-10-08T15:46:59.296Z,16.60
2022-10-08T15:49:33.524Z,16.54
2022-10-08T15:52:00.926Z,16.49
2022-10-08T15:54:27.378Z,16.48
2022-10-08T15:56:53.862Z,16.37
2022-10-08T15:59:20.518Z,16.26
2022-10-08T16:01:46.957Z,16.24
2022-10-08T16:04:17.254Z,16.29
2022-10-08T16:06:45.279Z,16.20
2022-10-08T16:09:13.211Z,16.12
2022-10-08T16:11:39.915Z,16.14
2022-10-08T16:14:21.052Z,16.07
2022-10-08T16:16:48.504Z,16.05
2022-10-08T16:19:19.808Z,16.07
2022-10-08T16:21:48.180Z,16.02
2022-10-08T16:24:14.953Z,15.99
2022-10-08T16:26:42.337Z,15.99
2022-10-08T16:29:12.426Z,15.93
2022-10-08T16:31:39.922Z,15.90
2022-10-08T16:34:21.258Z,15.85
2022-10-08T16:36:51.179Z,15.83
2022-10-08T16:39:19.915Z,15.80
2022-10-08T16:41:47.296Z,15.72
2022-10-08T16:44:17.998Z,15.66
2022-10-08T16:46:50.474Z,15.49
2022-10-08T16:49:26.514Z,15.24
2022-10-08T16:51:59.442Z,15.23
2022-10-08T16:54:26.480Z,15.19
2022-10-08T16:56:53.088Z,15.14
2022-10-08T16:59:21.979Z,14.97
2022-10-08T17:01:53.731Z,14.80
2022-10-08T17:04:21.613Z,14.81
2022-10-08T17:06:49.808Z,14.74
2022-10-08T17:09:16.290Z,14.44
2022-10-08T17:11:42.873Z,14.35
2022-10-08T17:14:11.670Z,14.13
2022-10-08T17:16:39.417Z,14.12
2022-10-08T17:19:06.254Z,13.82
2022-10-08T17:21:34.801Z,13.93
2022-10-08T17:24:02.478Z,13.96
2022-10-08T17:26:30.190Z,13.75
2022-10-08T17:28:57.628Z,13.75
2022-10-08T17:31:27.131Z,13.75
2022-10-08T17:33:53.614Z,13.65
2022-10-08T17:36:26.496Z,13.41
2022-10-08T17:38:57.437Z,13.25
2022-10-08T17:41:35.921Z,13.23
2022-10-08T17:44:04.545Z,13.25
2022-10-08T17:46:33.212Z,12.85
2022-10-08T17:48:59.825Z,13.02
2022-10-08T17:51:28.640Z,12.96
2022-10-08T17:54:03.809Z,12.73
2022-10-08T17:56:30.702Z,12.84
2022-10-08T17:58:57.523Z,12.76
2022-10-08T18:01:32.320Z,12.35
2022-10-08T18:04:12.090Z,12.40
2022-10-08T18:06:49.269Z,12.34
2022-10-08T18:09:20.451Z,12.41
2022-10-08T18:11:50.848Z,12.22
2022-10-08T18:14:17.461Z,12.07
2022-10-08T18:16:47.858Z,11.89
2022-10-08T18:19:15.200Z,11.43
2022-10-08T18:21:41.770Z,11.20
2022-10-08T18:24:08.444Z,11.28
2022-10-08T18:26:36.752Z,11.58
2022-10-08T18:29:09.091Z,11.81
2022-10-08T18:31:36.412Z,11.66
2022-10-08T18:34:06.090Z,11.69
2022-10-08T18:36:34.804Z,11.53
2022-10-08T18:39:07.253Z,11.66
2022-10-08T18:41:38.770Z,11.27
2022-10-08T18:44:10.114Z,11.13
2022-10-08T18:46:37.655Z,10.95
2022-10-08T18:49:06.303Z,11.23
2022-10-08T18:51:33.759Z,11.43
2022-10-08T18:54:03.578Z,11.05
2022-10-08T18:56:34.470Z,11.09
2022-10-08T18:59:09.260Z,11.17
2022-10-08T19:01:40.409Z,11.26
2022-10-08T19:04:11.592Z,11.18
2022-10-08T19:06:42.340Z,10.90
2022-10-08T19:09:08.876Z,10.77
2022-10-08T19:11:44.437Z,10.84
2022-10-08T19:14:13.359Z,10.89
2022-10-08T19:16:40.258Z,10.97
2022-10-08T19:19:12.575Z,10.77
2022-10-08T19:21:39.056Z,10.70
2022-10-08T19:24:10.678Z,10.70
2022-10-08T19:26:37.209Z,10.41
2022-10-08T19:29:03.757Z,10.39
2022-10-08T19:31:34.671Z,10.59
2022-10-08T19:34:06.873Z,10.47
2022-10-08T19:36:37.738Z,10.28
2022-10-08T19:39:07.047Z,10.40
2022-10-08T19:41:33.608Z,10.28
2022-10-08T19:44:00.279Z,10.23
2022-10-08T19:46:27.450Z,10.58
2022-10-08T19:49:01.881Z,10.29
2022-10-08T19:51:29.813Z,10.04
2022-10-08T19:53:57.066Z,10.03
2022-10-08T19:56:23.782Z,9.75
2022-10-08T19:58:53.216Z,10.00
2022-10-08T20:01:25.162Z,9.96
2022-10-08T20:03:54.780Z,9.84
2022-10-08T20:06:24.775Z,9.70
2022-10-08T20:08:56.404Z,9.71
2022-10-08T20:11:23.168Z,9.64
2022-10-08T20:13:51.021Z,9.47
2022-10-08T20:16:27.260Z,9.56
2022-10-08T20:18:58.837Z,9.70
2022-10-08T20:21:26.712Z,9.77
2022-10-08T20:23:53.250Z,9.84
2022-10-08T20:26:24.946Z,9.53
2022-10-08T20:28:59.467Z,9.77
2022-10-08T20:31:29.656Z,9.68
2022-10-08T20:34:01.586Z,9.00
2022-10-08T20:36:28.522Z,8.98
2022-10-08T20:38:55.191Z,9.13
2022-10-08T20:41:24.533Z,9.26
2022-10-08T20:43:56.799Z,9.32
2022-10-08T20:46:23.561Z,9.37
2022-10-08T20:48:50.117Z,9.49
2022-10-08T20:51:22.779Z,9.23
2022-10-08T20:53:58.188Z,8.79
2022-10-08T20:56:25.640Z,8.95
2022-10-08T20:58:52.846Z,9.12
2022-10-08T21:01:21.876Z,9.14
2022-10-08T21:03:48.672Z,9.13
2022-10-08T21:06:17.662Z,8.91
2022-10-08T21:08:46.634Z,8.97
2022-10-08T21:11:15.727Z,8.94
2022-10-08T21:13:43.099Z,8.57
2022-10-08T21:16:11.715Z,8.63
2022-10-08T21:18:39.146Z,8.72
2022-10-08T21:21:07.955Z,8.85
2022-10-08T21:23:34.499Z,8.63
2022-10-08T21:26:10.009Z,8.60
2022-10-08T21:28:36.667Z,8.37
2022-10-08T21:31:04.533Z,8.38
2022-10-08T21:33:34.627Z,8.65
2022-10-08T21:36:01.209Z,8.52
2022-10-08T21:38:27.707Z,8.49
2022-10-08T21:40:59.051Z,8.35
2022-10-08T21:43:25.635Z,8.35
2022-10-08T21:45:56.615Z,8.37
2022-10-08T21:48:24.455Z,8.15
2022-10-08T21:51:05.495Z,8.13
2022-10-08T21:53:33.281Z,8.28
2022-10-08T21:56:03.520Z,8.23
2022-10-08T21:58:32.016Z,8.34
2022-10-08T22:00:58.527Z,8.05
2022-10-08T22:03:24.989Z,7.99
2022-10-08T22:05:55.467Z,8.26
2022-10-08T22:08:23.383Z,7.91
2022-10-08T22:10:50.170Z,8.01
2022-10-08T22:13:17.247Z,7.83
2022-10-08T22:16:00.374Z,7.97
2022-10-08T22:18:31.874Z,8.09
2022-10-08T22:21:06.547Z,8.15
2022-10-08T22:23:34.010Z,7.97
2022-10-08T22:26:04.040Z,7.79
2022-10-08T22:28:30.974Z,7.82
2022-10-08T22:31:01.604Z,7.95
2022-10-08T22:33:28.706Z,7.89
2022-10-08T22:36:06.582Z,8.03
2022-10-08T22:38:35.342Z,8.25
2022-10-08T22:41:06.888Z,7.85
2022-10-08T22:43:33.483Z,7.77
2022-10-08T22:46:12.997Z,7.62
2022-10-08T22:48:40.141Z,7.58
2022-10-08T22:51:18.408Z,7.44
2022-10-08T22:53:45.482Z,7.62
2022-10-08T22:56:14.496Z,7.58
2022-10-08T22:58:41.091Z,7.48
2022-10-08T23:01:09.926Z,7.38
2022-10-08T23:03:37.089Z,7.50
2022-10-08T23:06:21.351Z,7.35
2022-10-08T23:08:52.465Z,7.41
2022-10-08T23:11:18.927Z,7.33
2022-10-08T23:13:49.952Z,7.40
2022-10-08T23:16:16.874Z,7.32
2022-10-08T23:18:45.463Z,7.35
2022-10-08T23:21:17.078Z,7.34
2022-10-08T23:23:47.686Z,7.33
2022-10-08T23:26:15.975Z,7.61
2022-10-08T23:28:43.535Z,7.48
2022-10-08T23:31:14.268Z,7.29
2022-10-08T23:33:42.799Z,7.43
2022-10-08T23:36:11.700Z,7.56
2022-10-08T23:38:38.455Z,7.53
2022-10-08T23:41:06.911Z,7.29
2022-10-08T23:43:35.351Z,6.95
2022-10-08T23:46:02.399Z,7.08
2022-10-08T23:48:28.939Z,6.96
2022-10-08T23:50:55.538Z,6.83
2022-10-08T23:53:22.106Z,6.74
2022-10-08T23:55:49.031Z,6.99
2022-10-08T23:58:17.926Z,6.91
